Other Surface Observations
Issued by NWS Great Falls, MT

Home | Current Version | Previous Version | Text Only | Print | Product List | Glossary On
Versions: 1 2 3 4 5 6 7 8 9 10 11 12 13 14 15 16 17 18 19 20 21 22 23 24 25 26 27 28 29 30 31 32 33 34 35 36 37 38 39 40 41 42 43 44 45 46 47 48 49 50
124
SXUS55 KTFX 222044
OSOTFX

AREA AWOS OBSERVATIONS
NATIONAL WEATHER SERVICE GREAT FALLS MT
0244 PM MDT Sun Apr 22 2018

METAR K3U3 222043Z AUTO 02007KT 11/M05 A3009
METAR KS71 222044Z AUTO 26008KT 10SM 15/M06 A3010
METAR K38S 222044Z AUTO 32008KT 10SM 12/M04 A3012
METAR K6S5 222043Z AUTO 05006 10SM 12/M05 A3012
METAR K1S3 222044Z AUTO 07005KT 17/M05 A3009
METAR KPWD 222043Z AUTO 26012G18KTKT 10SM 16/M05 A3008
METAR KPO1 222043Z AUTO 27009G15KTKT  10SM 17/M06 A3011



USA.gov is the U.S. government's official web portal to all federal, state and local government web resources and services.